Flight Track Log - Related Links

Times and Time Zones

All times are in EDT time to prevent confusion due to time zone crossing. See the UAL5915 flight status page for this flight to view local times or setup timezone preferences in your user account.

Time Position Orientation Groundspeed Altitude Reporting Facility
EDT Latitude Longitude Course Direction KTS MPH feet Rate Location/Type
Fri 01:37:32 PM 36.1861 -95.9783 171° South 195 224 3,800  Level Kansas Center
Fri 01:38:21 PM 36.1372 -95.9692 171° South 273 314 5,200 2,155 Climbing Kansas Center
Fri 01:39:15 PM 36.1211 -95.8808 103° East 311 358 7,500 2,504 Climbing Kansas Center
Fri 01:40:16 PM 36.1106 -95.7786 97° East 304 350 10,000 1,902 Climbing Kansas Center
Fri 01:41:18 PM 36.0994 -95.6669 97° East 320 368 11,400 1,392 Climbing Kansas Center
Fri 01:42:21 PM 36.0847 -95.5383 98° East 368 423 12,900 1,645 Climbing Kansas Center
Fri 01:43:22 PM 36.0867 -95.3769 89° East 392 451 14,800 1,548 Climbing Kansas Center
Fri 01:44:25 PM 36.0925 -95.2506 87° East 405 466 16,100 1,694 Climbing Kansas Center
Fri 01:45:26 PM 36.0981 -95.0928 87° East 413 475 18,300 2,203 Climbing Kansas Center
Fri 01:45:44 PM 36.1019 -95.0425 85° East 404 465 19,000 2,308 Climbing Memphis Center
Fri 01:46:44 PM 36.1069 -94.9067 87° East 404 465 21,300 1,900 Climbing Memphis Center
Fri 01:47:44 PM 36.1119 -94.7658 87° East 399 459 22,800 1,600 Climbing Memphis Center
Fri 01:48:44 PM 36.1169 -94.6272 87° East 404 465 24,500 1,750 Climbing Memphis Center
Fri 01:49:44 PM 36.1217 -94.4861 88° East 404 465 26,300 1,500 Climbing Memphis Center
Fri 01:50:44 PM 36.1283 -94.3450 87° East 404 465 27,500 1,150 Climbing Memphis Center
Fri 01:51:44 PM 36.1308 -94.1989 89° East 410 472 28,600 1,050 Climbing Memphis Center
Fri 01:52:44 PM 36.1364 -94.0833 87° East 416 479 29,600 1,050 Climbing Memphis Center
Fri 01:53:44 PM 36.1372 -93.9139 90° East 436 502 30,700 1,050 Climbing Memphis Center
Fri 01:54:44 PM 36.1414 -93.7572 88° East 443 510 31,700 1,000 Climbing Memphis Center
Fri 01:55:44 PM 36.1456 -93.6006 88° East 448 516 32,700 1,000 Climbing Memphis Center
Fri 01:56:44 PM 36.1519 -93.4364 87° East 455 524 33,700 1,000 Climbing Memphis Center
Fri 01:57:44 PM 36.1558 -93.2747 88° East 462 532 34,700 650 Climbing Memphis Center
Fri 01:58:44 PM 36.1597 -93.1050 88° East 473 544 35,000 150 Climbing Memphis Center
Fri 01:59:44 PM 36.1653 -92.9381 88° East 481 554 35,000  Level Memphis Center
Fri 02:00:44 PM 36.1669 -92.7556 89° East 507 583 35,000  Level Memphis Center
Fri 02:01:44 PM 36.1725 -92.5708 88° East 522 601 35,000  Level Memphis Center
Fri 02:02:44 PM 36.1756 -92.3856 89° East 533 613 35,000  Level Memphis Center
Fri 02:03:44 PM 36.1783 -92.1981 89° East 538 619 35,000  Level Memphis Center
Fri 02:04:44 PM 36.1750 -91.9922 91° East 538 619 35,000  Level Memphis Center
Fri 02:05:44 PM 36.1794 -91.8019 88° East 538 619 35,000  Level Memphis Center
Fri 02:06:44 PM 36.1817 -91.6117 89° East 543 625 35,000  Level Memphis Center
Fri 02:07:44 PM 36.1833 -91.4189 89° East 548 631 35,000  Level Memphis Center
Fri 02:08:44 PM 36.1869 -91.2289 89° East 548 631 35,000  Level Memphis Center
Fri 02:09:44 PM 36.1881 -91.0358 90° East 548 631 35,000  Level Memphis Center
Fri 02:10:44 PM 36.1889 -90.8456 90° East 548 631 35,000  Level Memphis Center
Fri 02:11:44 PM 36.1894 -90.6553 90° East 554 638 35,000  Level Memphis Center
Fri 02:12:44 PM 36.1919 -90.4597 89° East 554 638 35,000 100 Level Memphis Center
Fri 02:13:44 PM 36.1897 -90.2644 91° East 554 638 35,200 600 Climbing Memphis Center
Fri 02:14:44 PM 36.1894 -90.0742 90° East 554 638 36,200 850 Climbing Memphis Center
Fri 02:15:44 PM 36.1889 -89.8889 90° East 548 631 36,900 400 Climbing Memphis Center
Fri 02:16:44 PM 36.1881 -89.6986 90° East 548 631 37,000 50 Climbing Memphis Center
Fri 02:17:44 PM 36.1869 -89.5108 90° East 548 631 37,000  Level Memphis Center
Fri 02:18:44 PM 36.1833 -89.3206 91° East 548 631 37,000  Level Memphis Center
Fri 02:19:44 PM 36.1839 -89.1331 90° East 548 631 37,000  Level Memphis Center
Fri 02:20:44 PM 36.1839 -88.9453 90° East 548 631 37,000  Level Memphis Center
Fri 02:21:44 PM 36.1817 -88.7600 91° East 548 631 37,000  Level Memphis Center
Fri 02:22:44 PM 36.1792 -88.5725 91° East 543 625 37,000  Level Memphis Center
Fri 02:23:44 PM 36.1764 -88.3900 91° East 533 613 37,000  Level Memphis Center
Fri 02:24:44 PM 36.1753 -88.2022 90° East 533 613 37,000  Level Memphis Center
Fri 02:25:44 PM 36.1700 -88.0250 92° East 526 605 37,000  Level Memphis Center
Fri 02:26:44 PM 36.1642 -87.8375 92° East 526 605 37,000  Level Memphis Center
Fri 02:27:44 PM 36.1625 -87.6578 91° East 529 609 37,000  Level Memphis Center
Fri 02:28:44 PM 36.1561 -87.4703 92° East 529 609 37,000  Level Memphis Center
Fri 02:29:44 PM 36.1519 -87.2878 92° East 535 616 37,000  Level Memphis Center
Fri 02:30:44 PM 36.1472 -87.1056 92° East 535 616 37,000  Level Memphis Center
Fri 02:31:44 PM 36.1403 -86.9233 93° East 530 610 37,000  Level Memphis Center
Fri 02:32:44 PM 36.1369 -86.7358 91° East 537 618 37,000  Level Memphis Center
Fri 02:33:44 PM 36.1922 -86.5636 68° East 532 612 37,000  Level Memphis Center
Fri 02:34:44 PM 36.2706 -86.4031 59° Northeast 532 612 37,000  Level Memphis Center
Fri 02:37:16 PM 36.4650 -86.0019 59° Northeast 548 631 37,000  Level Indianapolis Center
Fri 02:38:18 PM 36.5436 -85.8356 60° Northeast 553 636 37,000  Level Indianapolis Center
Fri 02:39:20 PM 36.6206 -85.6719 60° Northeast 546 628 37,000  Level Indianapolis Center
Fri 02:40:22 PM 36.6975 -85.5061 60° Northeast 548 631 37,000  Level Indianapolis Center
Fri 02:41:24 PM 36.7758 -85.3397 60° Northeast 552 635 37,000  Level Indianapolis Center
Fri 02:42:26 PM 36.8675 -85.1400 60° Northeast 550 633 37,000  Level Indianapolis Center
Fri 02:43:28 PM 36.9447 -84.9742 60° Northeast 549 632 37,000  Level Indianapolis Center
Fri 02:44:30 PM 37.0225 -84.8033 60° Northeast 561 646 37,000  Level Indianapolis Center
Fri 02:45:32 PM 37.1058 -84.6219 60° Northeast 556 640 37,000  Level Indianapolis Center
Fri 02:46:34 PM 37.1828 -84.4506 61° Northeast 560 644 37,000  Level Indianapolis Center
Fri 02:47:36 PM 37.2589 -84.2811 61° Northeast 556 640 37,000  Level Indianapolis Center
Fri 02:48:38 PM 37.3375 -84.1117 60° Northeast 560 644 37,000  Level Indianapolis Center
Fri 02:49:40 PM 37.4125 -83.9419 61° Northeast 560 644 37,000  Level Indianapolis Center
Fri 02:50:42 PM 37.4886 -83.7714 61° Northeast 558 642 37,000  Level Indianapolis Center
Fri 02:51:44 PM 37.5772 -83.5706 61° Northeast 560 644 37,000  Level Indianapolis Center
Fri 02:52:46 PM 37.6528 -83.3972 61° Northeast 560 644 37,000  Level Indianapolis Center
Fri 02:53:48 PM 37.7286 -83.2261 61° Northeast 555 639 37,000  Level Indianapolis Center
Fri 02:54:50 PM 37.8053 -83.0492 61° Northeast 568 654 37,000  Level Indianapolis Center
Fri 02:55:52 PM 37.8783 -82.8775 62° Northeast 556 640 37,000  Level Indianapolis Center
Fri 02:56:54 PM 37.9542 -82.7064 61° Northeast 557 641 37,000  Level Indianapolis Center
Fri 02:57:56 PM 38.0392 -82.5058 62° Northeast 552 635 37,000  Level Indianapolis Center
Fri 02:58:58 PM 38.0844 -82.3186 73° East 555 639 37,000  Level Indianapolis Center
Fri 03:00:00 PM 38.1111 -82.1475 79° East 548 631 37,000  Level Indianapolis Center
Fri 03:01:02 PM 38.1414 -81.9586 78° East 550 633 37,000 -387 Level Indianapolis Center
Fri 03:02:04 PM 38.1750 -81.7297 79° East 552 635 36,200 -726 Descending Indianapolis Center
Fri 03:03:06 PM 38.2039 -81.5369 79° East 559 643 35,500 -774 Descending Indianapolis Center
Fri 03:04:08 PM 38.2317 -81.3461 79° East 556 640 34,600 -919 Descending Indianapolis Center
Fri 03:05:10 PM 38.2586 -81.1617 79° East 539 620 33,600 -774 Descending Indianapolis Center
Fri 03:06:12 PM 38.2861 -80.9750 79° East 540 621 33,000 -293 Descending Indianapolis Center
Fri 03:07:13 PM 38.3119 -80.7628 81° East 538 619 33,000  Level Washington Center
Fri 03:08:13 PM 38.3069 -80.5903 92° East 538 619 33,000 -250 Level Washington Center
Fri 03:09:13 PM 38.3144 -80.4028 87° East 538 619 32,500 -700 Descending Washington Center
Fri 03:10:13 PM 38.3469 -80.2144 78° East 533 613 31,600 -950 Descending Washington Center
Fri 03:11:13 PM 38.3853 -80.0311 75° East 538 619 30,600 -950 Descending Washington Center
Fri 03:12:13 PM 38.4275 -79.8456 74° East 538 619 29,700 -1,800 Descending Washington Center
Fri 03:13:13 PM 38.4739 -79.6492 73° East 543 625 27,000 -2,350 Descending Washington Center
Fri 03:14:13 PM 38.5150 -79.4792 73° East 519 597 25,000 -1,500 Descending Washington Center
Fri 03:15:13 PM 38.5450 -79.3214 76° East 483 556 24,000 -950 Descending Washington Center
Fri 03:16:13 PM 38.5708 -79.1581 79° East 466 536 23,100 -1,500 Descending Washington Center
Fri 03:17:13 PM 38.5936 -79.0183 78° East 460 529 21,000 -2,350 Descending Washington Center
Fri 03:18:13 PM 38.6211 -78.8494 78° East 444 511 18,400 -2,400 Descending Washington Center
Fri 03:19:13 PM 38.6497 -78.7206 74° East 437 503 16,200 -2,200 Descending Washington Center
Fri 03:20:13 PM 38.6847 -78.5678 74° East 408 470 14,000 -2,150 Descending Washington Center
Fri 03:21:13 PM 38.7147 -78.4467 72° East 396 456 11,900 -1,900 Descending Washington Center
Fri 03:22:13 PM 38.7592 -78.3392 62° Northeast 363 418 10,200 -1,350 Descending Washington Center
Fri 03:23:13 PM 38.8258 -78.2456 48° Northeast 330 380 9,200 -950 Descending Washington Center
Fri 03:24:13 PM 38.8672 -78.1592 58° Northeast 311 358 8,300 -1,100 Descending Washington Center
Fri 03:25:13 PM 38.8947 -78.0481 72° East 295 339 7,000 -1,100 Descending Washington Center
Fri 03:26:13 PM 38.9150 -77.9608 73° East 283 326 6,100 -500 Descending Washington Center
Fri 03:27:13 PM 38.9444 -77.8494 71° East 283 326 6,000 -50 Descending Washington Center
Fri 03:28:13 PM 38.9625 -77.7619 75° East 283 326 6,000  Level Washington Center
Fri 03:29:13 PM 38.9583 -77.6550 93° East 271 312 6,000  Level Washington Center
Fri 03:30:13 PM 38.9989 -77.5894 51° Northeast 247 284 6,000 -277 Level Washington Center
Fri 03:31:23 PM 39.0833 -77.5667 12° North 248 285 5,400 -864 Descending Potomac TRACON
Fri 03:32:18 PM 39.1333 -77.5333 27° Northeast 266 306 4,200 -1,252 Descending Potomac TRACON
Fri 03:33:18 PM 39.1167 -77.4667 108° East 221 254 3,000 -1,100 Descending Potomac TRACON
Fri 03:34:18 PM 39.0500 -77.4500 169° South 177 204 2,000 -905 Descending Potomac TRACON
Fri 03:35:24 PM 39.0167 -77.4667 201° Southwest 153 176 1,100 -818 Descending Potomac TRACON
Fri 03:37:00 PM 38.9474 -77.4599 159° South  Level Estimated
Fri 03:44:00 PM 38.9474 -77.4599 159° South  Level Estimated
Fri 03:45:00 PM 38.9474 -77.4599 159° South  Level Estimated
Fri 03:46:00 PM 38.9474 -77.4599 159° South  Level Estimated

Login

Don't have an account? Register now (free) for customized features, flight alerts, and more!